Time;durP1;ratioP1;P1;durP2;ratioP2;P2;SDS_P1;SDS_P2;PMS_P1;PMS_P2;Temp;Humidity;BMP_temperature;BMP_pressure;BME280_temperature;BME280_humidity;BME280_pressure;Samples;Min_cycle;Max_cycle;Signal;HPM_P1;HPM_P2
2022/10/22 00:01:13;;;;;;;0.08;0.08;;;;;;;11.40;100.00;101350.94;10605365;27;20137;-79
2022/10/22 00:06:15;;;;;;;0.43;0.30;;;;;;;11.51;100.00;101359.88;10609260;27;20123;-79
2022/10/22 00:11:18;;;;;;;0.30;0.30;;;;;;;11.39;100.00;101401.66;10588043;27;20043;-79
2022/10/22 00:16:20;;;;;;;0.65;0.47;;;;;;;11.35;100.00;101423.06;10620368;27;20062;-79
2022/10/22 00:21:21;;;;;;;0.32;0.32;;;;;;;11.35;100.00;101450.53;10607456;27;20059;-79
2022/10/22 00:26:23;;;;;;;0.40;0.32;;;;;;;11.43;100.00;101480.03;10595519;27;20087;-79
2022/10/22 00:31:24;;;;;;;0.60;0.20;;;;;;;11.53;100.00;101481.19;10614401;27;20055;-79
2022/10/22 00:36:26;;;;;;;0.65;0.50;;;;;;;11.57;100.00;101489.09;10607657;27;20057;-80
2022/10/22 00:41:28;;;;;;;0.20;0.17;;;;;;;11.58;100.00;101487.38;10620732;27;20045;-79
2022/10/22 00:46:29;;;;;;;0.32;0.30;;;;;;;11.55;100.00;101482.13;10605089;27;20071;-79
2022/10/22 00:51:34;;;;;;;0.10;0.10;;;;;;;11.55;100.00;101495.03;10593153;27;20163;-79
2022/10/22 00:56:36;;;;;;;0.28;0.28;;;;;;;11.59;100.00;101491.69;10607884;27;20047;-79
2022/10/22 01:01:38;;;;;;;0.10;0.10;;;;;;;11.62;100.00;101490.91;10582367;27;20040;-80
2022/10/22 01:06:40;;;;;;;0.57;0.40;;;;;;;11.63;100.00;101475.50;10599378;27;20405;-80
2022/10/22 01:12:06;;;;;;;0.75;0.75;;;;;;;11.67;100.00;101484.22;10613780;27;20162;-79
2022/10/22 01:17:22;;;;;;;0.10;0.05;;;;;;;11.63;100.00;101483.25;10596778;27;20054;-79
2022/10/22 01:22:33;;;;;;;0.20;0.20;;;;;;;11.53;100.00;101488.94;10610533;27;20067;-79
2022/10/22 01:27:53;;;;;;;0.40;0.13;;;;;;;11.54;100.00;101494.13;10602555;27;20054;-79
2022/10/22 01:33:00;;;;;;;1.25;0.52;;;;;;;11.55;100.00;101489.88;10624370;27;20051;-79
2022/10/22 01:38:05;;;;;;;0.32;0.32;;;;;;;11.57;100.00;101501.13;10619469;27;20126;-80
2022/10/22 01:43:09;;;;;;;0.95;0.50;;;;;;;11.53;100.00;101494.09;10594249;27;20047;-79
2022/10/22 01:48:27;;;;;;;0.80;0.68;;;;;;;11.52;100.00;101500.97;10622054;27;20035;-79
2022/10/22 01:53:39;;;;;;;0.60;0.38;;;;;;;11.40;100.00;101495.41;10624150;27;20078;-79
2022/10/22 01:59:05;;;;;;;0.10;0.10;;;;;;;11.38;100.00;101497.06;10614896;27;20286;-79
2022/10/22 02:04:20;;;;;;;0.95;0.43;;;;;;;11.20;100.00;101492.19;10580730;27;20078;-79
2022/10/22 02:09:24;;;;;;;0.38;0.38;;;;;;;11.26;100.00;101492.41;10618042;27;20450;-80
2022/10/22 02:14:29;;;;;;;1.52;0.82;;;;;;;11.32;100.00;101497.75;10588794;27;20093;-79
2022/10/22 02:19:55;;;;;;;0.80;0.40;;;;;;;11.27;100.00;101495.03;10603565;27;20066;-79
2022/10/22 02:24:56;;;;;;;0.55;0.35;;;;;;;11.30;100.00;101504.56;10582516;27;20594;-79
2022/10/22 02:30:05;;;;;;;4.43;1.13;;;;;;;11.40;100.00;101505.72;10613719;27;20525;-79
2022/10/22 02:35:12;;;;;;;0.17;0.17;;;;;;;11.37;100.00;101501.34;10615541;27;20074;-78
2022/10/22 02:40:14;;;;;;;1.23;0.75;;;;;;;11.38;100.00;101499.66;10600328;27;20049;-80
2022/10/22 02:45:18;;;;;;;0.90;0.32;;;;;;;11.33;100.00;101501.19;10582838;27;20040;-79
2022/10/22 02:50:19;;;;;;;0.57;0.57;;;;;;;11.30;100.00;101507.13;10575234;27;20062;-80
2022/10/22 02:55:21;;;;;;;0.22;0.13;;;;;;;11.20;100.00;101502.53;10621845;27;20406;-79
2022/10/22 03:00:23;;;;;;;0.20;0.20;;;;;;;11.26;100.00;101511.31;10594162;27;20088;-79
2022/10/22 03:05:24;;;;;;;0.50;0.50;;;;;;;11.23;100.00;101515.50;10611375;27;20527;-80
2022/10/22 03:10:26;;;;;;;0.30;0.30;;;;;;;11.23;100.00;101518.06;10597475;27;20051;-79
2022/10/22 03:15:27;;;;;;;0.40;0.40;;;;;;;11.35;100.00;101522.75;10620204;27;20131;-79
2022/10/22 03:20:29;;;;;;;0.20;0.20;;;;;;;11.29;100.00;101523.44;10613290;27;20469;-79
2022/10/22 03:25:33;;;;;;;0.73;0.40;;;;;;;11.34;100.00;101531.31;10598218;27;20497;-79
2022/10/22 03:30:35;;;;;;;1.23;0.90;;;;;;;11.27;100.00;101535.44;10612988;27;20092;-79
2022/10/22 03:35:43;;;;;;;1.52;0.90;;;;;;;11.19;100.00;101537.72;10599234;27;20472;-79
2022/10/22 03:40:45;;;;;;;0.73;0.35;;;;;;;11.25;100.00;101552.53;10577510;27;20043;-79
2022/10/22 03:45:46;;;;;;;0.20;0.20;;;;;;;11.36;100.00;101565.81;10619383;27;20130;-78
2022/10/22 03:50:48;;;;;;;0.50;0.30;;;;;;;11.30;100.00;101571.63;10594113;27;20046;-79
2022/10/22 03:55:50;;;;;;;1.10;0.68;;;;;;;11.40;100.00;101572.81;10616594;27;20043;-78
2022/10/22 04:00:51;;;;;;;0.45;0.45;;;;;;;11.51;100.00;101580.91;10607820;28;20083;-79
2022/10/22 04:05:53;;;;;;;0.47;0.30;;;;;;;11.57;100.00;101587.16;10610917;28;20425;-78
2022/10/22 04:10:54;;;;;;;0.45;0.45;;;;;;;11.69;100.00;101591.84;10618578;28;20032;-78
2022/10/22 04:16:06;;;;;;;0.20;0.20;;;;;;;11.60;100.00;101596.69;10610133;28;20138;-79
2022/10/22 04:21:10;;;;;;;2.45;0.68;;;;;;;11.60;100.00;101599.28;10617714;28;20039;-79
2022/10/22 04:26:12;;;;;;;0.75;0.75;;;;;;;11.59;100.00;101601.00;10586365;28;20126;-79
2022/10/22 04:31:17;;;;;;;0.60;0.43;;;;;;;11.49;100.00;101604.06;10600325;28;20078;-79
2022/10/22 04:36:19;;;;;;;7.60;0.90;;;;;;;11.48;100.00;101596.28;10604243;28;20139;-79
2022/10/22 04:41:26;;;;;;;1.30;0.77;;;;;;;11.57;100.00;101591.44;10617881;28;20387;-79
2022/10/22 04:46:31;;;;;;;0.20;0.20;;;;;;;11.54;100.00;101597.34;10619786;27;20130;-79
2022/10/22 04:51:32;;;;;;;1.15;0.43;;;;;;;11.81;100.00;101605.94;10623587;27;20053;-78
2022/10/22 04:56:34;;;;;;;1.02;0.30;;;;;;;11.68;100.00;101597.81;10590818;27;20051;-78
2022/10/22 05:01:38;;;;;;;0.13;0.13;;;;;;;11.66;100.00;101603.75;10605129;27;20047;-78
2022/10/22 05:06:44;;;;;;;0.00;0.00;;;;;;;11.69;100.00;101602.16;10621753;27;20459;-79
2022/10/22 05:11:48;;;;;;;0.50;0.38;;;;;;;11.73;100.00;101591.09;10625051;27;20027;-78
2022/10/22 05:16:50;;;;;;;1.00;0.22;;;;;;;11.64;100.00;101584.75;10624981;27;20494;-78
2022/10/22 05:21:54;;;;;;;0.35;0.35;;;;;;;11.82;100.00;101592.22;10605739;27;20054;-79
2022/10/22 05:26:57;;;;;;;0.52;0.25;;;;;;;11.64;100.00;101583.06;10606706;27;20514;-79
2022/10/22 05:31:59;;;;;;;0.52;0.40;;;;;;;11.74;100.00;101590.28;10606201;27;20489;-79
2022/10/22 05:37:01;;;;;;;0.20;0.20;;;;;;;11.74;100.00;101590.28;10606008;27;20057;-79
2022/10/22 05:42:02;;;;;;;0.68;0.45;;;;;;;11.73;100.00;101587.66;10624028;27;20134;-79
2022/10/22 05:47:04;;;;;;;0.45;0.43;;;;;;;11.71;100.00;101587.59;10606136;27;20070;-79
2022/10/22 05:52:05;;;;;;;0.47;0.22;;;;;;;11.63;100.00;101586.47;10614342;27;20508;-79
2022/10/22 05:57:07;;;;;;;1.55;0.65;;;;;;;11.72;100.00;101593.63;10615493;27;20043;-79
2022/10/22 06:02:09;;;;;;;0.05;0.05;;;;;;;11.82;100.00;101592.22;10616538;27;20048;-79
2022/10/22 06:07:14;;;;;;;0.00;0.00;;;;;;;11.84;100.00;101588.84;10604775;27;20047;-79
2022/10/22 06:12:16;;;;;;;0.98;0.28;;;;;;;11.83;100.00;101588.81;10618874;27;20039;-79
2022/10/22 06:17:18;;;;;;;0.85;0.47;;;;;;;11.75;100.00;101589.44;10617085;27;20051;-79
2022/10/22 06:22:20;;;;;;;0.98;0.77;;;;;;;11.81;100.00;101600.78;10593057;27;20531;-79
2022/10/22 06:27:21;;;;;;;0.22;0.22;;;;;;;11.83;100.00;101602.63;10597537;27;20047;-79
2022/10/22 06:32:23;;;;;;;1.15;0.63;;;;;;;11.77;100.00;101604.13;10613334;27;20285;-79
2022/10/22 06:37:25;;;;;;;0.45;0.30;;;;;;;11.70;100.00;101597.84;10599699;27;20046;-79
2022/10/22 06:42:27;;;;;;;0.70;0.35;;;;;;;11.76;100.00;101616.16;10594545;27;20047;-79
2022/10/22 06:47:30;;;;;;;0.30;0.30;;;;;;;11.86;100.00;101614.75;10611602;27;20051;-78
2022/10/22 06:52:34;;;;;;;1.15;0.43;;;;;;;11.98;100.00;101622.03;10598127;27;20486;-79
2022/10/22 06:57:36;;;;;;;1.33;0.80;;;;;;;12.19;100.00;101634.72;10607925;27;20052;-78
2022/10/22 07:02:39;;;;;;;0.57;0.40;;;;;;;12.44;100.00;101631.19;10576767;27;20043;-79
2022/10/22 07:07:40;;;;;;;0.55;0.20;;;;;;;12.64;100.00;101612.81;10588640;27;20043;-79
2022/10/22 07:12:42;;;;;;;0.40;0.30;;;;;;;12.85;100.00;101607.34;10609337;27;20043;-79
2022/10/22 07:17:44;;;;;;;0.57;0.32;;;;;;;13.02;100.00;101576.78;10610190;27;20439;-79
2022/10/22 07:22:46;;;;;;;0.10;0.10;;;;;;;13.07;100.00;101551.06;10582585;27;20123;-79
2022/10/22 07:27:47;;;;;;;0.28;0.28;;;;;;;13.23;100.00;101541.97;10595492;27;20089;-79
2022/10/22 07:32:49;;;;;;;0.15;0.13;;;;;;;13.36;100.00;101528.47;10600577;27;20139;-80
2022/10/22 07:37:50;;;;;;;0.30;0.30;;;;;;;13.98;100.00;101511.81;10593363;27;20454;-79
2022/10/22 07:42:52;;;;;;;0.10;0.10;;;;;;;14.56;100.00;101462.84;10615593;27;20043;-79
2022/10/22 07:47:53;;;;;;;0.20;0.20;;;;;;;14.39;100.00;101427.97;10578575;27;20389;-79
2022/10/22 07:52:55;;;;;;;0.82;0.45;;;;;;;15.02;100.00;101407.44;10597769;27;20038;-79
2022/10/22 07:57:59;;;;;;;0.47;0.43;;;;;;;15.26;100.00;101374.91;10582468;27;20053;-79
2022/10/22 08:03:00;;;;;;;0.98;0.60;;;;;;;15.02;100.00;101346.06;10591278;28;20038;-79
2022/10/22 08:08:02;;;;;;;0.05;0.05;;;;;;;14.54;100.00;101396.25;10580869;28;20051;-79
2022/10/22 08:13:04;;;;;;;0.47;0.40;;;;;;;14.60;100.00;101422.28;10613484;27;20032;-79
2022/10/22 08:18:05;;;;;;;0.15;0.15;;;;;;;14.73;100.00;101428.59;10618148;27;20071;-80
2022/10/22 08:23:07;;;;;;;1.65;0.45;;;;;;;14.62;100.00;101435.28;10625884;27;20804;-79
2022/10/22 08:28:09;;;;;;;0.80;0.28;;;;;;;14.58;100.00;101445.59;10587091;27;20078;-79
2022/10/22 08:33:10;;;;;;;0.15;0.10;;;;;;;14.54;100.00;101445.50;10606670;27;20143;-79
2022/10/22 08:38:12;;;;;;;1.55;1.02;;;;;;;14.53;100.00;101452.44;10602525;27;20474;-79
2022/10/22 08:44:00;;;;;;;0.20;0.20;;;;;;;14.74;100.00;101449.34;10602948;27;20181;-79
2022/10/22 08:49:08;;;;;;;0.17;0.10;;;;;;;14.70;100.00;101444.13;10579588;27;20075;-79
2022/10/22 08:54:57;;;;;;;0.00;0.00;;;;;;;14.77;100.00;101453.75;10621596;27;20153;-79
2022/10/22 09:00:25;;;;;;;0.20;0.10;;;;;;;15.10;100.00;101455.16;10617395;27;20043;-79
2022/10/22 09:05:38;;;;;;;0.00;0.00;;;;;;;15.21;100.00;101438.03;10611970;27;20093;-79
2022/10/22 09:10:48;;;;;;;0.28;0.20;;;;;;;15.86;100.00;101410.38;10604279;27;20438;-79
2022/10/22 09:15:57;;;;;;;0.47;0.22;;;;;;;16.84;100.00;101380.09;10594326;27;20861;-79
2022/10/22 09:21:18;;;;;;;0.30;0.10;;;;;;;16.52;100.00;101333.94;10603675;27;20050;-79
2022/10/22 09:26:19;;;;;;;0.00;0.00;;;;;;;16.10;100.00;101338.75;10621430;27;20035;-78
2022/10/22 09:31:29;;;;;;;0.00;0.00;;;;;;;16.00;100.00;101368.97;10589099;27;20035;-79
2022/10/22 09:36:30;;;;;;;0.17;0.08;;;;;;;16.09;100.00;101404.56;10624772;27;20043;-79
2022/10/22 09:41:32;;;;;;;0.30;0.30;;;;;;;16.10;100.00;101382.03;10623839;27;20053;-79
2022/10/22 09:46:38;;;;;;;0.05;0.05;;;;;;;16.17;100.00;101402.94;10604952;27;20392;-78
2022/10/22 09:51:53;;;;;;;0.20;0.20;;;;;;;15.89;100.00;101401.75;10622631;27;20069;-78
2022/10/22 09:57:15;;;;;;;0.00;0.00;;;;;;;16.04;100.00;101428.75;10603191;27;20049;-78
2022/10/22 10:02:27;;;;;;;0.05;0.05;;;;;;;15.62;100.00;101472.34;10589092;27;20386;-79
2022/10/22 10:07:46;;;;;;;4.40;0.43;;;;;;;15.58;100.00;101522.53;10612526;27;20049;-79
2022/10/22 10:12:59;;;;;;;0.00;0.00;;;;;;;15.61;100.00;101535.53;10601629;27;20035;-79
2022/10/22 10:18:27;;;;;;;1.35;0.30;;;;;;;15.52;100.00;101511.19;10598285;27;20100;-78
2022/10/22 10:23:28;;;;;;;0.13;0.13;;;;;;;15.51;100.00;101519.84;10599333;27;20043;-78
2022/10/22 10:29:02;;;;;;;0.00;0.00;;;;;;;15.18;100.00;101562.56;10604876;27;20118;-78
2022/10/22 10:34:37;;;;;;;0.00;0.00;;;;;;;15.08;100.00;101607.34;10644145;27;20111;-77
2022/10/22 10:40:18;;;;;;;0.00;0.00;;;;;;;14.94;100.00;101645.13;10611817;27;20122;-78
2022/10/22 10:45:50;;;;;;;0.52;0.43;;;;;;;14.73;100.00;101672.41;10601753;27;20054;-77
2022/10/22 10:51:17;;;;;;;1.38;0.22;;;;;;;14.80;100.00;101694.16;10619246;27;20043;-78
2022/10/22 10:56:31;;;;;;;0.95;0.95;;;;;;;14.67;100.00;101714.63;10596827;27;20042;-78
2022/10/22 11:02:00;;;;;;;0.00;0.00;;;;;;;14.56;100.00;101721.28;10584493;27;20482;-76
2022/10/22 11:07:06;;;;;;;1.08;0.80;;;;;;;14.77;100.00;101735.59;10613127;27;20401;-79
2022/10/22 11:12:47;;;;;;;0.05;0.03;;;;;;;15.09;100.00;101738.88;10600126;27;20497;-79
2022/10/22 11:17:51;;;;;;;0.10;0.00;;;;;;;15.05;100.00;101727.53;10595851;27;20389;-79
2022/10/22 11:23:01;;;;;;;2.25;0.32;;;;;;;14.83;100.00;101731.41;10615298;27;20049;-79
2022/10/22 11:28:32;;;;;;;0.17;0.17;;;;;;;15.10;100.00;101729.38;10600046;27;20043;-78
2022/10/22 11:33:47;;;;;;;0.73;0.38;;;;;;;15.06;100.00;101692.09;10617885;27;20075;-78
2022/10/22 11:38:49;;;;;;;0.00;0.00;;;;;;;16.61;100.00;101653.94;10609637;27;20067;-78
2022/10/22 11:44:04;;;;;;;0.73;0.52;;;;;;;16.50;100.00;101588.78;10582833;27;20047;-79
2022/10/22 11:49:11;;;;;;;0.30;0.25;;;;;;;16.88;100.00;101538.03;10591604;27;20474;-79
2022/10/22 11:54:36;;;;;;;0.52;0.30;;;;;;;17.13;100.00;101512.25;10609776;27;20042;-79
2022/10/22 11:59:43;;;;;;;0.00;0.00;;;;;;;16.90;100.00;101476.44;10614326;27;20047;-78
2022/10/22 12:04:46;;;;;;;0.65;0.63;;;;;;;17.10;100.00;101450.63;10599336;28;20065;-78
2022/10/22 12:09:51;;;;;;;0.10;0.10;;;;;;;17.55;100.00;101410.97;10597943;28;20084;-78
2022/10/22 12:14:56;;;;;;;1.67;0.30;;;;;;;17.41;100.00;101405.69;10617833;28;20039;-78
2022/10/22 12:20:06;;;;;;;0.45;0.32;;;;;;;17.15;100.00;101409.00;10615289;28;20039;-78
2022/10/22 12:25:16;;;;;;;0.50;0.20;;;;;;;16.81;100.00;101424.34;10589233;28;20486;-78
2022/10/22 12:30:22;;;;;;;0.85;0.32;;;;;;;17.16;100.00;101408.13;10606956;28;20044;-78
2022/10/22 12:35:28;;;;;;;0.20;0.13;;;;;;;17.85;100.00;101362.44;10580471;28;20045;-78
2022/10/22 12:40:34;;;;;;;0.00;0.00;;;;;;;17.46;100.00;101364.91;10605689;28;20385;-78
2022/10/22 12:45:36;;;;;;;1.50;0.50;;;;;;;17.25;100.00;101374.34;10613364;28;20071;-78
2022/10/22 12:50:49;;;;;;;0.10;0.05;;;;;;;17.53;100.00;101363.22;10593314;27;20033;-78
2022/10/22 12:55:55;;;;;;;0.00;0.00;;;;;;;16.88;100.00;101381.00;10616136;28;20074;-78
2022/10/22 13:01:00;;;;;;;2.05;0.47;;;;;;;16.96;100.00;101376.75;10586319;28;20601;-78
2022/10/22 13:06:17;;;;;;;0.75;0.75;;;;;;;16.67;100.00;101393.00;10577346;27;20043;-77
2022/10/22 13:11:19;;;;;;;1.08;0.38;;;;;;;16.58;100.00;101405.91;10623692;27;20127;-79
2022/10/22 13:16:24;;;;;;;0.00;0.00;;;;;;;16.38;100.00;101417.00;10616530;27;20506;-79
2022/10/22 13:21:36;;;;;;;0.47;0.10;;;;;;;16.36;100.00;101436.06;10604728;27;20546;-78
2022/10/22 13:26:38;;;;;;;0.00;0.00;;;;;;;16.38;100.00;101442.16;10604952;27;20078;-78
2022/10/22 13:31:45;;;;;;;0.20;0.20;;;;;;;16.21;100.00;101450.63;10623882;27;20078;-78
2022/10/22 13:36:48;;;;;;;0.63;0.32;;;;;;;16.08;100.00;101457.41;10599431;27;20040;-78
2022/10/22 13:41:50;;;;;;;0.25;0.20;;;;;;;16.05;100.00;101496.34;10621884;27;20434;-78
2022/10/22 13:46:52;;;;;;;0.20;0.08;;;;;;;16.04;100.00;101502.41;10603870;27;20121;-78
2022/10/22 13:51:53;;;;;;;0.30;0.20;;;;;;;16.25;100.00;101485.34;10592715;27;20070;-77
2022/10/22 13:56:55;;;;;;;0.10;0.10;;;;;;;16.20;100.00;101489.59;10603240;27;20521;-78
2022/10/22 14:01:57;;;;;;;4.85;0.65;;;;;;;16.17;100.00;101491.31;10584425;27;20043;-77
2022/10/22 14:07:00;;;;;;;0.00;0.00;;;;;;;16.16;100.00;101507.75;10611079;27;20118;-78
2022/10/22 14:12:13;;;;;;;0.43;0.10;;;;;;;16.22;100.00;101545.09;10558468;28;20050;-78
2022/10/22 14:17:16;;;;;;;0.10;0.10;;;;;;;16.21;100.00;101558.94;10562787;28;20541;-78
2022/10/22 14:22:18;;;;;;;0.10;0.10;;;;;;;16.16;100.00;101551.97;10577536;27;20078;-77
2022/10/22 14:27:20;;;;;;;0.40;0.20;;;;;;;16.26;100.00;101578.94;10621011;27;20043;-78
2022/10/22 14:32:21;;;;;;;0.10;0.00;;;;;;;16.09;100.00;101591.72;10619183;27;20545;-78
2022/10/22 14:37:23;;;;;;;0.10;0.05;;;;;;;16.02;100.00;101595.09;10600888;27;20464;-77
2022/10/22 14:42:25;;;;;;;0.20;0.17;;;;;;;16.22;100.00;101591.88;10616114;27;20073;-78
2022/10/22 14:47:27;;;;;;;0.40;0.20;;;;;;;16.68;100.00;101530.03;10612736;27;20053;-77
2022/10/22 14:52:28;;;;;;;0.10;0.10;;;;;;;16.77;100.00;101477.19;10615156;27;20069;-78
2022/10/22 14:57:30;;;;;;;4.22;0.98;;;;;;;16.66;100.00;101445.88;10618225;27;20051;-78
2022/10/22 15:02:32;;;;;;;0.05;0.05;;;;;;;16.66;100.00;101443.28;10580471;27;20074;-78
2022/10/22 15:07:34;;;;;;;0.43;0.22;;;;;;;16.38;100.00;101468.16;10598839;27;20054;-78
2022/10/22 15:12:36;;;;;;;0.57;0.30;;;;;;;16.27;100.00;101481.03;10611625;27;20043;-78
2022/10/22 15:17:37;;;;;;;1.13;0.40;;;;;;;16.21;100.00;101454.94;10613445;27;20039;-78
2022/10/22 15:22:39;;;;;;;0.57;0.32;;;;;;;16.25;100.00;101441.13;10607786;27;20039;-79
2022/10/22 15:27:41;;;;;;;0.05;0.03;;;;;;;16.22;100.00;101446.28;10604342;27;20062;-78
2022/10/22 15:32:46;;;;;;;0.35;0.35;;;;;;;16.17;100.00;101449.72;10589889;27;20032;-78
2022/10/22 15:37:51;;;;;;;0.10;0.10;;;;;;;15.83;100.00;101485.66;10614900;27;20092;-78
2022/10/22 15:42:52;;;;;;;0.10;0.10;;;;;;;15.59;100.00;101506.09;10611251;27;20141;-78
2022/10/22 15:47:54;;;;;;;0.93;0.40;;;;;;;15.49;100.00;101520.63;10585184;27;20146;-78
2022/10/22 15:52:56;;;;;;;0.80;0.38;;;;;;;15.30;100.00;101561.03;10600107;27;20370;-78
2022/10/22 15:57:57;;;;;;;0.52;0.45;;;;;;;15.39;100.00;101603.59;10614551;27;20550;-79
2022/10/22 16:03:29;;;;;;;0.00;0.00;;;;;;;15.19;100.00;101625.75;10614826;27;20508;-79
2022/10/22 16:08:32;;;;;;;2.03;0.43;;;;;;;15.06;100.00;101633.28;10612626;28;20074;-78
2022/10/22 16:13:35;;;;;;;0.50;0.22;;;;;;;14.93;100.00;101640.81;10618443;28;20414;-78
2022/10/22 16:18:37;;;;;;;16.77;0.70;;;;;;;14.77;100.00;101657.78;10614002;27;20043;-78
2022/10/22 16:23:41;;;;;;;1.75;0.68;;;;;;;14.51;100.00;101682.28;10591985;28;20043;-78
2022/10/22 16:28:44;;;;;;;0.20;0.20;;;;;;;14.44;100.00;101690.75;10599995;28;20566;-78
2022/10/22 16:33:46;;;;;;;0.95;0.70;;;;;;;14.38;100.00;101711.38;10606093;28;20106;-78
2022/10/22 16:38:50;;;;;;;1.17;0.68;;;;;;;14.57;100.00;101713.53;10615601;28;20047;-78
2022/10/22 16:43:54;;;;;;;0.35;0.17;;;;;;;14.60;100.00;101713.59;10625680;27;20078;-79
2022/10/22 16:49:01;;;;;;;0.17;0.17;;;;;;;14.44;100.00;101716.69;10626122;27;20045;-78
2022/10/22 16:54:04;;;;;;;0.57;0.22;;;;;;;14.07;100.00;101736.53;10611773;27;20066;-78
2022/10/22 16:59:14;;;;;;;0.55;0.30;;;;;;;14.06;100.00;101721.81;10611693;27;20433;-76
2022/10/22 17:04:16;;;;;;;5.82;1.90;;;;;;;13.93;100.00;101723.22;10632739;27;20474;-77
2022/10/22 17:09:18;;;;;;;11.35;4.60;;;;;;;13.89;100.00;101750.78;10632811;27;20039;-77
2022/10/22 17:14:19;;;;;;;13.13;3.80;;;;;;;14.04;100.00;101762.34;10612631;27;20071;-77
2022/10/22 17:25:41;;;;;;;0.95;0.65;;;;;;;13.84;100.00;101786.06;10630800;27;20092;-77
2022/10/22 17:30:43;;;;;;;0.50;0.50;;;;;;;13.70;100.00;101792.56;10631487;27;20039;-75
2022/10/22 17:35:44;;;;;;;2.03;0.45;;;;;;;13.73;100.00;101797.84;10611616;27;20078;-76
2022/10/22 17:40:46;;;;;;;1.65;0.60;;;;;;;13.63;100.00;101800.19;10630848;27;20043;-78
2022/10/22 17:45:48;;;;;;;3.33;1.13;;;;;;;13.26;100.00;101812.03;10630081;27;20114;-77
2022/10/22 17:50:49;;;;;;;0.20;0.20;;;;;;;12.09;100.00;101816.94;10610981;27;20043;-76
2022/10/22 17:56:01;;;;;;;0.20;0.20;;;;;;;12.33;100.00;101824.66;10610313;27;20104;-76
2022/10/22 18:01:03;;;;;;;0.68;0.20;;;;;;;12.56;100.00;101847.78;10628899;27;20039;-77
2022/10/22 18:06:06;;;;;;;1.75;0.20;;;;;;;12.44;100.00;101856.03;10610538;27;20134;-76
2022/10/22 18:11:09;;;;;;;0.10;0.10;;;;;;;12.32;100.00;101873.69;10630344;27;20047;-76
2022/10/22 18:16:11;;;;;;;0.15;0.03;;;;;;;12.36;100.00;101891.09;10627070;27;20121;-76
2022/10/22 18:21:14;;;;;;;0.90;0.20;;;;;;;12.12;100.00;101875.59;10609848;27;20578;-77
2022/10/22 18:26:17;;;;;;;0.55;0.43;;;;;;;12.02;100.00;101885.63;10628687;27;20039;-76
2022/10/22 18:31:25;;;;;;;0.20;0.10;;;;;;;11.95;100.00;101906.81;10611913;27;20075;-77
2022/10/22 18:36:26;;;;;;;0.45;0.10;;;;;;;11.99;100.00;101911.31;10627873;27;20516;-77
2022/10/22 18:41:30;;;;;;;3.28;0.93;;;;;;;11.79;100.00;101907.09;10627415;27;20561;-76
2022/10/22 18:46:33;;;;;;;0.35;0.17;;;;;;;11.79;100.00;101894.19;10608903;27;20047;-76
2022/10/22 18:51:35;;;;;;;0.25;0.20;;;;;;;11.79;100.00;101907.09;10627305;27;20096;-76
2022/10/22 18:56:38;;;;;;;0.55;0.43;;;;;;;11.72;100.00;101943.03;10608441;27;20497;-76
2022/10/22 19:01:40;;;;;;;0.50;0.38;;;;;;;11.72;100.00;101943.03;10608080;27;20070;-77
2022/10/22 19:06:41;;;;;;;0.73;0.40;;;;;;;11.63;100.00;101946.94;10625522;27;20055;-77
2022/10/22 19:11:48;;;;;;;0.17;0.17;;;;;;;11.82;100.00;101953.69;10626509;27;20502;-76
2022/10/22 19:16:50;;;;;;;0.47;0.40;;;;;;;11.90;100.00;101947.09;10625935;27;20054;-77
2022/10/22 19:21:52;;;;;;;0.65;0.30;;;;;;;11.41;100.00;101940.94;10626034;27;20085;-76
2022/10/22 19:26:53;;;;;;;0.20;0.20;;;;;;;11.51;100.00;101944.75;10607703;27;20128;-77
2022/10/22 19:31:55;;;;;;;7.03;0.60;;;;;;;11.31;100.00;101944.88;10627631;27;20058;-77
2022/10/22 19:36:57;;;;;;;0.17;0.10;;;;;;;11.33;100.00;101947.50;10657719;27;20054;-77
2022/10/22 19:42:00;;;;;;;0.43;0.25;;;;;;;11.30;100.00;101948.25;10657161;27;20042;-76
2022/10/22 19:47:02;;;;;;;0.65;0.52;;;;;;;11.38;100.00;101957.19;10645683;27;20043;-76
2022/10/22 19:52:04;;;;;;;0.10;0.03;;;;;;;11.19;100.00;101944.38;10606663;27;20047;-76
2022/10/22 19:57:07;;;;;;;0.40;0.20;;;;;;;10.93;100.00;101946.78;10606703;27;20049;-76
2022/10/22 20:02:17;;;;;;;0.08;0.05;;;;;;;10.94;100.00;101931.41;10625311;27;20039;-76
2022/10/22 20:07:18;;;;;;;;;;;;;;;10.94;100.00;101953.69;10625121;28;20401;-76
2022/10/22 20:12:20;;;;;;;0.00;0.00;;;;;;;10.90;100.00;101951.81;10578901;28;19920;-76
2022/10/22 20:17:21;;;;;;;0.10;0.10;;;;;;;10.82;100.00;101954.06;10587573;28;20035;-76
2022/10/22 20:22:48;;;;;;;0.25;0.17;;;;;;;10.47;100.00;101956.91;10610209;27;20134;-76
2022/10/22 20:27:49;;;;;;;0.00;0.00;;;;;;;10.69;100.00;101957.81;10630187;27;20071;-76
2022/10/22 20:32:51;;;;;;;0.65;0.57;;;;;;;10.57;100.00;101975.34;10632529;27;20074;-76
2022/10/22 20:37:52;;;;;;;0.00;0.00;;;;;;;10.60;100.00;101993.53;10632300;27;20085;-75
2022/10/22 20:42:54;;;;;;;0.10;0.10;;;;;;;10.62;100.00;101987.63;10632730;27;20039;-76
2022/10/22 20:47:56;;;;;;;0.00;0.00;;;;;;;10.50;100.00;101983.63;10613815;27;20078;-77
2022/10/22 20:53:03;;;;;;;0.00;0.00;;;;;;;10.57;100.00;101983.06;10592844;27;20105;-76
2022/10/22 20:58:04;;;;;;;0.00;0.00;;;;;;;10.57;100.00;101980.50;10581950;28;20126;-76
2022/10/22 21:03:06;;;;;;;0.28;0.28;;;;;;;10.58;100.00;101984.84;10562265;28;20130;-76
2022/10/22 21:08:09;;;;;;;2.63;0.20;;;;;;;10.59;100.00;101989.19;10546269;28;20047;-77
2022/10/22 21:13:11;;;;;;;0.20;0.10;;;;;;;10.76;100.00;102006.22;10545321;28;20079;-77
2022/10/22 21:18:13;;;;;;;0.38;0.38;;;;;;;10.97;100.00;102018.31;10552001;28;20075;-76
2022/10/22 21:23:15;;;;;;;0.30;0.30;;;;;;;10.82;100.00;102025.38;10588635;28;20050;-76
2022/10/22 21:28:16;;;;;;;0.47;0.15;;;;;;;10.77;100.00;102028.63;10577247;28;20075;-76
2022/10/22 21:33:18;;;;;;;0.15;0.15;;;;;;;10.99;100.00;102029.53;10545248;28;20078;-76
2022/10/22 21:38:21;;;;;;;0.88;0.43;;;;;;;11.08;100.00;102039.38;10587457;28;20039;-76
2022/10/22 21:43:23;;;;;;;0.65;0.45;;;;;;;11.20;100.00;102049.34;10587287;28;20110;-75
2022/10/22 21:48:24;;;;;;;0.77;0.65;;;;;;;11.23;100.00;102060.66;10585095;27;20067;-77
2022/10/22 21:53:26;;;;;;;0.43;0.38;;;;;;;11.21;100.00;102051.06;10611031;27;20031;-77
2022/10/22 21:58:28;;;;;;;0.22;0.22;;;;;;;11.30;100.00;102033.41;10592140;27;20054;-76
2022/10/22 22:03:30;;;;;;;0.60;0.38;;;;;;;11.33;100.00;102020.63;10624900;27;20035;-77
2022/10/22 22:08:32;;;;;;;1.08;0.90;;;;;;;11.17;100.00;102010.50;10593450;27;20043;-77
2022/10/22 22:13:35;;;;;;;0.75;0.50;;;;;;;11.09;100.00;102002.47;10603751;27;20071;-77
2022/10/22 22:18:38;;;;;;;0.65;0.50;;;;;;;11.11;100.00;101999.13;10609899;27;20086;-76
2022/10/22 22:23:42;;;;;;;1.15;0.30;;;;;;;11.30;100.00;102014.47;10625116;27;20078;-76
2022/10/22 22:28:44;;;;;;;0.38;0.22;;;;;;;11.41;100.00;101998.59;10573685;27;20070;-76
2022/10/22 22:33:46;;;;;;;0.57;0.40;;;;;;;11.45;100.00;101996.13;10609276;27;20130;-75
2022/10/22 22:38:47;;;;;;;1.05;0.32;;;;;;;11.47;100.00;101986.75;10627409;27;20043;-75
2022/10/22 22:43:49;;;;;;;2.17;0.20;;;;;;;11.42;100.00;101969.41;10609142;27;20082;-76
2022/10/22 22:48:51;;;;;;;0.25;0.13;;;;;;;11.34;100.00;101957.91;10610155;27;20040;-75
2022/10/22 22:53:53;;;;;;;0.15;0.15;;;;;;;11.22;100.00;101950.56;10597101;27;20039;-76
2022/10/22 22:58:56;;;;;;;0.85;0.55;;;;;;;11.38;100.00;101957.19;10609025;27;20405;-76
2022/10/22 23:04:04;;;;;;;0.65;0.30;;;;;;;11.39;100.00;101955.50;10626426;27;20118;-76
2022/10/22 23:09:09;;;;;;;0.30;0.13;;;;;;;11.47;100.00;101955.78;10626710;27;20067;-76
2022/10/22 23:14:15;;;;;;;0.80;0.52;;;;;;;11.41;100.00;101939.25;10626408;27;20118;-76